Richmond, KY (40476)

6:49 PM EST on February 13, 2016 (GMT -0500)
City Hall | | Change Station
CLOSE
Current Station
Personal Weather Station
Location: Richmond, KY
Elevation: 974 ft
Nearby Weather Stations
Active Advisory: Winter Weather Advisory

Elev 974 ft 37.75 °N, 84.30 °W | Updated 15 seconds ago

Clear
Clear
21.0 °F
Feels Like 21 °F
N
1.0
Wind Variable Wind from WNW
Gusts 4.0 mph

Today
High -- | Low -- °F
--% Chance of Precip.
Yesterday
High -- | Low -- °F
Precip. -- in
Pressure 30.49 in
Visibility 10.0 miles
Clouds Clear
Windchill 21 °F
Dew Point 6 °F
Humidity 51%
Rainfall 0.00 in
Snow Depth Not available.
7:29 AM 6:13 PM
Waxing Crescent, 35% visible
METAR KI39 132335Z AUTO 35003KT 10SM CLR M07/M17 A3049 RMK AO2
Pressure 30.49 in
Visibility 10.0 miles
Clouds Clear
Windchill 21 °F
Dew Point 6 °F
Humidity 51%
Rainfall 0.00 in
Snow Depth Not available.
7:29 AM 6:13 PM
Waxing Crescent, 35% visible
METAR KI39 132335Z AUTO 35003KT 10SM CLR M07/M17 A3049 RMK AO2

10-Day Weather Forecast

Almanac

Astronomy

Feb. 13, 2016 Rise Set
Actual Time
Civil Twilight
Nautical Twilight
Astronomical Twilight
Moon
Length of Visible Light
Length of Day
Tomorrow will be .
, % of the Moon is Illuminated

Today's Extremes

State Highs State Lows

Community

WunderPhotos

Upload Photos

1,892,705 photos uploaded!

WunderBlog® & News

Nearby

Air Quality

  Air Quality AQ Index Pollutant
Not available.

Snow Depth

Station Depth Elevation

Earthquake Activity

City Distance Mag. Time & Date
Minimum magnitude displayed is 2.5.

Coastal Water Temperatures

Place Temperature

Stations

Nearby Weather Stations

Station Location Temp. Windchill Dew Point Humidity Wind Precip. Elev Updated Type
                   

Watches & Warnings

Winter Weather Advisory
Issued: 1:04 PM CST Feb. 13, 2016 – National Weather Service

... Winter Weather Advisory in effect from 7 am EST /6 am CST/
Sunday to 10 am EST /9 am CST/ Monday...

The National Weather Service in Louisville has issued a Winter
Weather Advisory for snow... which is in effect from 7 am EST /6
am CST/ Sunday to 10 am EST /9 am CST/ Monday.

* Timing... light snow will begin Sunday morning... becoming
heavier Sunday afternoon and evening.

* Main impact... 2 to 4 inches of snow will be possible by late
Sunday night.

* Other impacts... there is a chance of a brief period of freezing
drizzle late Sunday night before transitioning to drizzle or
rain Monday morning.

Precautionary/preparedness actions...

A Winter Weather Advisory for snow means that periods of snow
will cause primarily travel difficulties. Be prepared for snow
covered roads and limited visibilities... and use caution while
driving.



13